Terminal Aerodrome Forecast
Issued by NWS Quad Cities IA IL

Home | Current Version | Previous Version | Text Only | Print | Product List | Glossary On
Versions: 1 2 3 4 5 6 7 8 9 10 11 12 13 14 15 16 17
000
FTUS43 KDVN 291500 AAB
TAFDBQ
TAF AMD
KDBQ 291516Z 2915/3012 19020G28KT P6SM SCT020 BKN060
      TEMPO 2915/2918 OVC015
     FM291800 20023G28KT P6SM OVC100
     FM292000 29017G31KT P6SM FEW100 SCT250
     FM300600 28008KT P6SM SKC=

USA.gov is the U.S. government's official web portal to all federal, state and local government web resources and services.